createdAt,value
2019-03-18T00:00:03.524Z,99604.44
2019-03-18T00:02:32.687Z,99605.29
2019-03-18T00:05:01.809Z,99618.36
2019-03-18T00:07:30.927Z,99617.88
2019-03-18T00:10:00.339Z,99616.58
2019-03-18T00:12:29.449Z,99623.54
2019-03-18T00:15:01.628Z,99626.97
2019-03-18T00:17:29.503Z,99624.81
2019-03-18T00:19:58.697Z,99635.29
2019-03-18T00:22:27.823Z,99635.69
2019-03-18T00:24:56.990Z,99640.88
2019-03-18T00:27:26.073Z,99642.62
2019-03-18T00:29:55.319Z,99636.50
2019-03-18T00:32:24.455Z,99643.47
2019-03-18T00:34:53.575Z,99645.64
2019-03-18T00:37:22.749Z,99642.63
2019-03-18T00:39:51.893Z,99654.44
2019-03-18T00:42:21.007Z,99650.47
2019-03-18T00:44:50.135Z,99657.47
2019-03-18T00:47:19.250Z,99651.43
2019-03-18T00:49:48.451Z,99656.66
2019-03-18T00:52:17.674Z,99654.91
2019-03-18T00:54:46.823Z,99661.50
2019-03-18T00:57:15.946Z,99656.26
2019-03-18T00:59:45.080Z,99654.06
2019-03-18T01:02:14.229Z,99648.45
2019-03-18T01:04:43.378Z,99653.23
2019-03-18T01:07:12.603Z,99648.91
2019-03-18T01:09:42.002Z,99654.53
2019-03-18T01:12:11.082Z,99675.45
2019-03-18T01:14:40.394Z,99662.42
2019-03-18T01:17:09.514Z,99657.63
2019-03-18T01:19:38.690Z,99675.45
2019-03-18T01:22:07.770Z,99672.03
2019-03-18T01:24:36.985Z,99670.31
2019-03-18T01:27:06.107Z,99659.44
2019-03-18T01:29:35.237Z,99671.59
2019-03-18T01:32:04.365Z,99659.88
2019-03-18T01:34:33.475Z,99665.55
2019-03-18T01:37:02.621Z,99672.09
2019-03-18T01:39:31.739Z,99666.45
2019-03-18T01:42:00.903Z,99667.46
2019-03-18T01:44:30.024Z,99665.64
2019-03-18T01:46:59.158Z,99653.86
2019-03-18T01:49:28.320Z,99661.67
2019-03-18T01:51:57.489Z,99655.58
2019-03-18T01:54:26.635Z,99642.94
2019-03-18T01:56:55.741Z,99658.63
2019-03-18T01:59:24.934Z,99651.65
2019-03-18T02:01:54.093Z,99649.92
2019-03-18T02:04:23.191Z,99657.77
2019-03-18T02:06:52.425Z,99659.05
2019-03-18T02:09:21.556Z,99648.56
2019-03-18T02:11:50.665Z,99656.88
2019-03-18T02:14:19.823Z,99652.08
2019-03-18T02:16:49.016Z,99660.80
2019-03-18T02:19:18.210Z,99661.70
2019-03-18T02:21:47.491Z,99661.27
2019-03-18T02:24:16.626Z,99665.20
2019-03-18T02:26:45.704Z,99666.48
2019-03-18T02:29:14.838Z,99664.31
2019-03-18T02:31:43.951Z,99677.38
2019-03-18T02:34:13.169Z,99663.00
2019-03-18T02:36:42.293Z,99664.74
2019-03-18T02:39:11.431Z,99670.81
2019-03-18T02:41:40.574Z,99666.42
2019-03-18T02:44:09.695Z,99656.81
2019-03-18T02:46:38.813Z,99662.44
2019-03-18T02:49:07.970Z,99666.83
2019-03-18T02:51:37.079Z,99656.77
2019-03-18T02:54:06.213Z,99664.58
2019-03-18T02:56:35.335Z,99663.70
2019-03-18T02:59:04.431Z,99661.11
2019-03-18T03:01:33.566Z,99666.33
2019-03-18T03:04:02.694Z,99658.90
2019-03-18T03:06:31.829Z,99662.44
2019-03-18T03:09:01.131Z,99662.05
2019-03-18T03:11:33.956Z,99654.20
2019-03-18T03:14:01.201Z,99654.20
2019-03-18T03:16:30.343Z,99649.00
2019-03-18T03:18:59.457Z,99660.38
2019-03-18T03:21:28.631Z,99660.38
2019-03-18T03:23:57.834Z,99668.65
2019-03-18T03:26:26.960Z,99676.48
2019-03-18T03:28:58.546Z,99679.98
2019-03-18T03:31:27.329Z,99682.16
2019-03-18T03:33:56.474Z,99684.36
2019-03-18T03:36:25.609Z,99690.87
2019-03-18T03:38:54.718Z,99686.53
2019-03-18T03:41:23.928Z,99692.20
2019-03-18T03:43:53.076Z,99691.33
2019-03-18T03:46:22.187Z,99696.17
2019-03-18T03:48:51.290Z,99697.91
2019-03-18T03:51:20.585Z,99706.16
2019-03-18T03:53:49.707Z,99713.60
2019-03-18T03:56:18.810Z,99713.58
2019-03-18T03:58:47.911Z,99724.91
2019-03-18T04:01:17.153Z,99725.42
2019-03-18T04:03:46.679Z,99725.75
2019-03-18T04:06:15.948Z,99732.70
2019-03-18T04:08:45.157Z,99740.48
2019-03-18T04:11:14.451Z,99751.36
2019-03-18T04:13:43.678Z,99748.70
2019-03-18T04:16:12.816Z,99743.42
2019-03-18T04:18:41.981Z,99746.45
2019-03-18T04:21:11.084Z,99739.48
2019-03-18T04:23:40.239Z,99747.31
2019-03-18T04:26:09.360Z,99744.72
2019-03-18T04:28:38.468Z,99742.96
2019-03-18T04:31:07.613Z,99744.72
2019-03-18T04:33:39.189Z,99742.86
2019-03-18T04:36:07.693Z,99751.09
2019-03-18T04:38:36.887Z,99761.95
2019-03-18T04:41:06.018Z,99761.97
2019-03-18T04:43:35.163Z,99754.58
2019-03-18T04:46:04.275Z,99760.66
2019-03-18T04:48:33.430Z,99766.78
2019-03-18T04:51:02.524Z,99765.05
2019-03-18T04:53:31.634Z,99783.81
2019-03-18T04:56:00.770Z,99774.25
2019-03-18T04:58:29.918Z,99782.55
2019-03-18T05:00:59.089Z,99785.16
2019-03-18T05:03:28.232Z,99789.06
2019-03-18T05:05:57.408Z,99792.56
2019-03-18T05:08:26.555Z,99790.38
2019-03-18T05:10:55.688Z,99795.63
2019-03-18T05:13:26.570Z,99800.47
2019-03-18T05:15:55.830Z,99807.86
2019-03-18T05:18:24.963Z,99803.96
2019-03-18T05:20:54.099Z,99802.19
2019-03-18T05:23:23.229Z,99810.05
2019-03-18T05:25:52.341Z,99818.30
2019-03-18T05:28:21.544Z,99821.40
2019-03-18T05:30:50.641Z,99820.55
2019-03-18T05:33:19.777Z,99825.34
2019-03-18T05:35:48.897Z,99824.03
2019-03-18T05:38:18.021Z,99829.75
2019-03-18T05:40:47.133Z,99828.45
2019-03-18T05:43:16.270Z,99835.43
2019-03-18T05:45:45.371Z,99844.19
2019-03-18T05:48:14.604Z,99842.92
2019-03-18T05:50:43.713Z,99844.21
2019-03-18T05:53:12.930Z,99849.03
2019-03-18T05:55:42.054Z,99842.13
2019-03-18T05:58:11.207Z,99840.81
2019-03-18T06:00:40.317Z,99847.74
2019-03-18T06:03:09.443Z,99845.53
2019-03-18T06:05:38.562Z,99861.66
2019-03-18T06:08:07.786Z,99860.41
2019-03-18T06:10:36.902Z,99866.97
2019-03-18T06:13:06.026Z,99867.80
2019-03-18T06:15:35.160Z,99875.67
2019-03-18T06:18:04.282Z,99877.00
2019-03-18T06:20:33.435Z,99891.41
2019-03-18T06:23:02.590Z,99892.70
2019-03-18T06:25:31.745Z,99890.62
2019-03-18T06:28:01.059Z,99893.20
2019-03-18T06:30:30.559Z,99891.02
2019-03-18T06:32:59.716Z,99900.63
2019-03-18T06:35:28.839Z,99906.38
2019-03-18T06:37:58.011Z,99909.03
2019-03-18T06:40:27.135Z,99920.39
2019-03-18T06:42:56.285Z,99924.36
2019-03-18T06:45:25.397Z,99916.00
2019-03-18T06:48:04.346Z,99930.45
2019-03-18T06:50:25.348Z,99930.43
2019-03-18T06:52:54.529Z,99937.01
2019-03-18T06:55:23.684Z,99935.70
2019-03-18T06:57:52.810Z,99935.33
2019-03-18T07:00:22.222Z,99941.45
2019-03-18T07:02:51.338Z,99941.93
2019-03-18T07:05:20.456Z,99948.17
2019-03-18T07:07:49.636Z,99954.83
2019-03-18T07:10:18.750Z,99957.12
2019-03-18T07:12:47.867Z,99959.79
2019-03-18T07:15:17.026Z,99961.56
2019-03-18T07:17:46.386Z,99972.48
2019-03-18T07:20:15.672Z,99973.00
2019-03-18T07:22:44.864Z,99972.20
2019-03-18T07:25:14.016Z,99976.30
2019-03-18T07:27:43.137Z,99979.84
2019-03-18T07:30:12.492Z,99978.06
2019-03-18T07:32:41.632Z,99978.91
2019-03-18T07:35:10.758Z,99980.19
2019-03-18T07:37:39.903Z,99991.06
2019-03-18T07:40:11.352Z,100004.62
2019-03-18T07:42:40.580Z,100005.94
2019-03-18T07:45:10.183Z,100011.59
2019-03-18T07:47:39.307Z,100023.34
2019-03-18T07:50:10.401Z,100022.02
2019-03-18T07:52:39.636Z,100039.53
2019-03-18T07:55:08.851Z,100033.84
2019-03-18T07:57:37.991Z,100036.91
2019-03-18T08:00:07.270Z,100049.22
2019-03-18T08:02:36.426Z,100034.47
2019-03-18T08:05:06.955Z,100037.58
2019-03-18T08:07:36.201Z,100034.09
2019-03-18T08:10:05.958Z,100042.42
2019-03-18T08:12:35.104Z,100041.97
2019-03-18T08:15:04.253Z,100048.09
2019-03-18T08:17:33.353Z,100042.86
2019-03-18T08:20:03.508Z,100041.95
2019-03-18T08:22:32.912Z,100044.27
2019-03-18T08:25:02.040Z,100039.39
2019-03-18T08:27:31.154Z,100048.23
2019-03-18T08:30:00.503Z,100049.52
2019-03-18T08:32:29.617Z,100049.02
2019-03-18T08:34:58.754Z,100050.36
2019-03-18T08:37:27.886Z,100058.91
2019-03-18T08:39:57.052Z,100054.70
2019-03-18T08:42:26.229Z,100060.76
2019-03-18T08:44:55.324Z,100055.07
2019-03-18T08:47:24.446Z,100059.45
2019-03-18T08:49:53.601Z,100073.44
2019-03-18T08:52:22.994Z,100070.38
2019-03-18T08:54:52.141Z,100080.56
2019-03-18T08:57:21.257Z,100094.17
2019-03-18T08:59:50.366Z,100092.83
2019-03-18T09:02:19.525Z,100090.19
2019-03-18T09:04:48.706Z,100097.17
2019-03-18T09:07:17.961Z,100107.69
2019-03-18T09:09:47.131Z,100103.72
2019-03-18T09:12:16.265Z,100099.75
2019-03-18T09:14:45.555Z,100094.09
2019-03-18T09:17:14.715Z,100108.58
2019-03-18T09:19:43.875Z,100104.20
2019-03-18T09:22:13.119Z,100113.88
2019-03-18T09:24:42.253Z,100113.00
2019-03-18T09:27:11.377Z,100115.66
2019-03-18T09:29:40.513Z,100123.12
2019-03-18T09:32:09.641Z,100121.34
2019-03-18T09:34:38.765Z,100115.66
2019-03-18T09:37:08.191Z,100117.38
2019-03-18T09:39:37.409Z,100127.42
2019-03-18T09:42:06.515Z,100122.16
2019-03-18T09:44:35.685Z,100114.75
2019-03-18T09:47:04.835Z,100131.46
2019-03-18T09:49:33.950Z,100124.86
2019-03-18T09:52:03.088Z,100130.56
2019-03-18T09:54:32.251Z,100127.91
2019-03-18T09:57:01.406Z,100137.56
2019-03-18T09:59:30.666Z,100136.67
2019-03-18T10:01:59.843Z,100138.00
2019-03-18T10:04:28.970Z,100137.09
2019-03-18T10:06:58.136Z,100154.20
2019-03-18T10:09:27.264Z,100154.65
2019-03-18T10:11:56.384Z,100160.37
2019-03-18T10:14:25.541Z,100148.10
2019-03-18T10:16:54.639Z,100141.52
2019-03-18T10:19:33.065Z,100141.78
2019-03-18T10:21:54.902Z,100133.97
2019-03-18T10:24:24.077Z,100132.78
2019-03-18T10:26:53.208Z,100133.88
2019-03-18T10:29:22.482Z,100120.80
2019-03-18T10:31:51.657Z,100126.28
2019-03-18T10:34:20.901Z,100136.63
2019-03-18T10:36:50.053Z,100139.64
2019-03-18T10:39:19.204Z,100147.14
2019-03-18T10:41:48.343Z,100151.05
2019-03-18T10:44:17.857Z,100155.34
2019-03-18T10:46:47.045Z,100162.58
2019-03-18T10:49:16.161Z,100168.23
2019-03-18T10:51:48.068Z,100170.67
2019-03-18T10:54:16.194Z,100173.23
2019-03-18T10:56:45.318Z,100180.73
2019-03-18T10:59:14.461Z,100188.71
2019-03-18T11:01:43.670Z,100185.09
2019-03-18T11:04:13.056Z,100184.26
2019-03-18T11:06:42.220Z,100183.75
2019-03-18T11:09:11.338Z,100069.82
2019-03-18T11:11:40.491Z,100181.11
2019-03-18T11:14:09.770Z,100176.71
2019-03-18T11:16:39.000Z,100175.89
2019-03-18T11:19:08.166Z,100192.81
2019-03-18T11:21:37.288Z,100187.53
2019-03-18T11:24:06.444Z,100182.47
2019-03-18T11:26:35.546Z,100183.22
2019-03-18T11:29:05.984Z,100193.67
2019-03-18T11:31:35.697Z,100089.32
2019-03-18T11:34:05.098Z,100201.08
2019-03-18T11:36:34.220Z,100201.22
2019-03-18T11:39:03.447Z,100199.54
2019-03-18T11:41:32.612Z,100213.63
2019-03-18T11:44:01.803Z,100187.59
2019-03-18T11:46:30.937Z,100200.28
2019-03-18T11:49:01.468Z,100198.84
2019-03-18T11:51:30.595Z,100208.00
2019-03-18T11:53:59.721Z,100210.69
2019-03-18T11:56:28.965Z,100217.53
2019-03-18T11:58:58.145Z,100218.52
2019-03-18T12:01:27.322Z,100224.05
2019-03-18T12:03:56.498Z,100229.33
2019-03-18T12:06:25.640Z,100227.66
2019-03-18T12:08:54.776Z,100235.23
2019-03-18T12:11:23.906Z,100241.45
2019-03-18T12:13:53.032Z,100243.21
2019-03-18T12:16:22.161Z,100248.06
2019-03-18T12:18:51.346Z,100254.26
2019-03-18T12:21:20.446Z,100277.55
2019-03-18T12:23:49.550Z,100267.03
2019-03-18T12:26:18.673Z,100274.06
2019-03-18T12:28:58.172Z,100275.84
2019-03-18T12:31:27.367Z,100277.16
2019-03-18T12:33:57.538Z,100286.37
2019-03-18T12:36:26.819Z,100279.36
2019-03-18T12:38:55.956Z,100269.69
2019-03-18T12:41:25.095Z,100277.58
2019-03-18T12:43:54.585Z,100276.70
2019-03-18T12:46:23.713Z,100280.67
2019-03-18T12:48:52.833Z,100278.45
2019-03-18T12:51:22.023Z,100282.43
2019-03-18T12:53:51.193Z,100285.06
2019-03-18T12:56:20.323Z,100284.16
2019-03-18T12:58:49.503Z,100276.28
2019-03-18T13:01:18.637Z,100260.92
2019-03-18T13:03:47.757Z,100272.31
2019-03-18T13:06:16.894Z,100269.23
2019-03-18T13:08:46.027Z,100272.75
2019-03-18T13:11:15.238Z,100260.45
2019-03-18T13:13:44.493Z,100256.90
2019-03-18T13:16:13.657Z,100256.02
2019-03-18T13:18:43.017Z,100253.38
2019-03-18T13:21:12.205Z,100253.75
2019-03-18T13:23:41.326Z,100247.11
2019-03-18T13:26:10.463Z,100269.52
2019-03-18T13:28:39.674Z,100261.09
2019-03-18T13:31:08.934Z,100267.25
2019-03-18T13:33:38.075Z,100269.08
2019-03-18T13:36:07.670Z,100271.23
2019-03-18T13:38:36.796Z,100272.52
2019-03-18T13:41:05.992Z,100279.12
2019-03-18T13:43:35.112Z,100277.86
2019-03-18T13:46:04.247Z,100286.23
2019-03-18T13:48:33.382Z,100306.81
2019-03-18T13:51:02.505Z,100297.13
2019-03-18T13:53:31.662Z,100290.11
2019-03-18T13:56:00.792Z,100290.53
2019-03-18T13:58:29.922Z,100295.82
2019-03-18T14:00:59.100Z,100294.50
2019-03-18T14:03:28.295Z,100305.50
2019-03-18T14:05:57.444Z,100307.70
2019-03-18T14:08:26.582Z,100317.00
2019-03-18T14:10:55.727Z,100341.19
2019-03-18T14:13:24.861Z,100350.90
2019-03-18T14:15:54.018Z,100351.36
2019-03-18T14:18:23.120Z,100354.87
2019-03-18T14:20:52.300Z,100371.13
2019-03-18T14:23:21.391Z,100363.67
2019-03-18T14:25:50.509Z,100374.62
2019-03-18T14:28:19.648Z,100372.41
2019-03-18T14:30:48.846Z,100377.25
2019-03-18T14:33:18.003Z,100378.58
2019-03-18T14:35:47.165Z,100375.51
2019-03-18T14:38:16.391Z,100387.36
2019-03-18T14:40:45.559Z,100387.36
2019-03-18T14:43:14.670Z,100384.71
2019-03-18T14:45:43.831Z,100386.47
2019-03-18T14:48:12.960Z,100383.82
2019-03-18T14:50:42.122Z,100387.36
2019-03-18T14:53:11.240Z,100391.31
2019-03-18T14:55:40.369Z,100398.76
2019-03-18T14:58:09.485Z,100395.23
2019-03-18T15:00:38.637Z,100400.09
2019-03-18T15:03:07.756Z,100400.56
2019-03-18T15:05:37.163Z,100398.37
2019-03-18T15:08:06.795Z,100401.00
2019-03-18T15:10:35.912Z,100409.80
2019-03-18T15:13:05.058Z,100403.20
2019-03-18T15:15:34.213Z,100410.69
2019-03-18T15:18:03.353Z,100414.17
2019-03-18T15:20:47.661Z,100414.62
2019-03-18T15:23:16.748Z,100411.09
2019-03-18T15:25:45.888Z,100422.09
2019-03-18T15:28:15.006Z,100417.28
2019-03-18T15:30:44.138Z,100405.41
2019-03-18T15:33:13.390Z,100418.58
2019-03-18T15:35:42.570Z,100420.34
2019-03-18T15:38:11.768Z,100426.50
2019-03-18T15:40:40.941Z,100422.98
2019-03-18T15:43:10.066Z,100420.79
2019-03-18T15:45:39.240Z,100413.33
2019-03-18T15:48:08.390Z,100412.86
2019-03-18T15:50:37.565Z,100416.82
2019-03-18T15:53:06.718Z,100415.50
2019-03-18T15:55:35.888Z,100426.92
2019-03-18T15:58:05.011Z,100421.65
2019-03-18T16:00:34.163Z,100426.95
2019-03-18T16:03:03.331Z,100442.76
2019-03-18T16:05:32.469Z,100438.34
2019-03-18T16:08:01.731Z,100447.59
2019-03-18T16:10:30.862Z,100448.88
2019-03-18T16:13:00.026Z,100477.87
2019-03-18T16:15:29.157Z,100537.12
2019-03-18T16:17:58.348Z,100545.75
2019-03-18T16:20:28.378Z,100561.28
2019-03-18T16:22:57.728Z,100554.08
2019-03-18T16:25:26.979Z,100533.78
2019-03-18T16:27:56.159Z,100511.80
2019-03-18T16:30:25.406Z,100502.53
2019-03-18T16:32:54.603Z,100498.52
2019-03-18T16:35:23.882Z,100494.16
2019-03-18T16:37:53.010Z,100491.97
2019-03-18T16:40:24.518Z,100492.44
2019-03-18T16:42:53.649Z,100490.70
2019-03-18T16:45:22.813Z,100499.88
2019-03-18T16:47:52.007Z,100511.69
2019-03-18T16:50:21.164Z,100511.23
2019-03-18T16:52:50.342Z,100515.53
2019-03-18T16:55:19.507Z,100520.31
2019-03-18T16:57:48.684Z,100534.71
2019-03-18T17:00:18.885Z,100542.59
2019-03-18T17:02:48.073Z,100571.00
2019-03-18T17:05:17.261Z,100595.53
2019-03-18T17:07:46.433Z,100578.45
2019-03-18T17:10:15.741Z,100569.56
2019-03-18T17:12:44.994Z,100558.99
2019-03-18T17:15:14.252Z,100564.59
2019-03-18T17:17:43.431Z,100560.14
2019-03-18T17:20:12.831Z,100566.24
2019-03-18T17:22:48.950Z,100567.56
2019-03-18T17:25:14.856Z,100574.98
2019-03-18T17:27:44.090Z,100572.37
2019-03-18T17:30:15.505Z,100582.34
2019-03-18T17:32:44.690Z,100587.06
2019-03-18T17:35:14.760Z,100586.97
2019-03-18T17:37:44.050Z,100586.88
2019-03-18T17:40:13.738Z,100594.18
2019-03-18T17:42:43.142Z,100604.11
2019-03-18T17:45:12.831Z,100610.09
2019-03-18T17:47:42.014Z,100613.08
2019-03-18T17:50:13.642Z,100617.36
2019-03-18T17:52:42.908Z,100620.34
2019-03-18T17:55:12.100Z,100621.92
2019-03-18T17:57:41.278Z,100623.09
2019-03-18T18:00:14.045Z,100626.89
2019-03-18T18:02:43.255Z,100629.40
2019-03-18T18:05:12.445Z,100631.33
2019-03-18T18:07:41.707Z,100642.91
2019-03-18T18:10:11.111Z,100643.18
2019-03-18T18:12:40.310Z,100641.78
2019-03-18T18:15:09.859Z,100646.95
2019-03-18T18:17:39.292Z,100646.83
2019-03-18T18:20:08.897Z,100646.30
2019-03-18T18:22:40.978Z,100653.22
2019-03-18T18:25:10.452Z,100659.17
2019-03-18T18:27:39.863Z,100669.12
2019-03-18T18:30:09.228Z,100682.15
2019-03-18T18:32:57.955Z,100687.81
2019-03-18T18:35:27.119Z,100681.09
2019-03-18T18:37:56.279Z,100690.08
2019-03-18T18:40:25.425Z,100690.85
2019-03-18T18:42:54.725Z,100691.13
2019-03-18T18:45:23.866Z,100694.91
2019-03-18T18:47:53.125Z,100705.30
2019-03-18T18:50:22.298Z,100701.77
2019-03-18T18:52:51.464Z,100704.77
2019-03-18T18:55:22.342Z,100706.50
2019-03-18T18:57:51.485Z,100707.38
2019-03-18T19:00:21.809Z,100709.95
2019-03-18T19:02:51.204Z,100701.77
2019-03-18T19:05:20.430Z,100716.20
2019-03-18T19:07:49.809Z,100715.84
2019-03-18T19:10:18.981Z,100722.08
2019-03-18T19:12:48.216Z,100726.89
2019-03-18T19:15:19.371Z,100721.70
2019-03-18T19:17:48.503Z,100723.86
2019-03-18T19:20:17.727Z,100727.78
2019-03-18T19:23:02.491Z,100726.44
2019-03-18T19:25:32.767Z,100732.13
2019-03-18T19:28:02.421Z,100735.63
2019-03-18T19:30:31.617Z,100735.33
2019-03-18T19:33:00.813Z,100738.40
2019-03-18T19:35:30.059Z,100754.57
2019-03-18T19:37:59.251Z,100754.16
2019-03-18T19:40:28.617Z,100756.77
2019-03-18T19:42:57.839Z,100761.59
2019-03-18T19:45:27.211Z,100765.94
2019-03-18T19:47:56.558Z,100762.86
2019-03-18T19:50:26.076Z,100765.47
2019-03-18T19:52:55.281Z,100768.09
2019-03-18T19:55:24.546Z,100771.05
2019-03-18T19:57:53.827Z,100780.22
2019-03-18T20:00:23.356Z,100783.17
2019-03-18T20:02:52.970Z,100782.25
2019-03-18T20:05:22.363Z,100789.64
2019-03-18T20:07:51.828Z,100788.72
2019-03-18T20:10:21.361Z,100791.34
2019-03-18T20:12:50.889Z,100793.45
2019-03-18T20:15:20.441Z,100803.84
2019-03-18T20:17:49.764Z,100805.56
2019-03-18T20:20:19.076Z,100807.77
2019-03-18T20:22:48.766Z,100817.27
2019-03-18T20:25:18.712Z,100819.03
2019-03-18T20:27:47.962Z,100818.11
2019-03-18T20:30:17.504Z,100815.91
2019-03-18T20:32:46.748Z,100823.34
2019-03-18T20:35:16.152Z,100827.61
2019-03-18T20:37:45.303Z,100828.50
2019-03-18T20:40:14.739Z,100833.69
2019-03-18T20:42:44.319Z,100836.64
2019-03-18T20:45:15.080Z,100847.03
2019-03-18T20:47:44.438Z,100846.98
2019-03-18T20:50:15.233Z,100843.44
2019-03-18T20:52:44.386Z,100843.34
2019-03-18T20:55:13.842Z,100843.64
2019-03-18T20:57:43.023Z,100847.44
2019-03-18T21:00:13.255Z,100859.50
2019-03-18T21:02:42.713Z,100865.01
2019-03-18T21:05:12.126Z,100868.28
2019-03-18T21:07:41.780Z,100879.50
2019-03-18T21:10:11.135Z,100884.53
2019-03-18T21:12:41.491Z,100890.46
2019-03-18T21:15:11.822Z,100889.02
2019-03-18T21:17:41.035Z,100893.63
2019-03-18T21:20:12.481Z,100893.85
2019-03-18T21:22:41.661Z,100904.11
2019-03-18T21:25:10.998Z,100900.05
2019-03-18T21:27:40.212Z,100897.42
2019-03-18T21:30:10.373Z,100902.97
2019-03-18T21:32:39.559Z,100904.17
2019-03-18T21:35:09.111Z,100915.41
2019-03-18T21:37:38.401Z,100914.42
2019-03-18T21:40:08.337Z,100917.36
2019-03-18T21:42:37.537Z,100922.78
2019-03-18T21:45:07.051Z,100934.80
2019-03-18T21:47:36.210Z,100940.30
2019-03-18T21:50:05.973Z,100927.06
2019-03-18T21:52:35.178Z,100937.92
2019-03-18T21:55:04.409Z,100937.88
2019-03-18T21:57:33.593Z,100935.63
2019-03-18T22:00:02.912Z,100935.05
2019-03-18T22:02:32.081Z,100929.62
2019-03-18T22:05:01.283Z,100936.52
2019-03-18T22:07:30.428Z,100939.95
2019-03-18T22:09:59.599Z,100941.27
2019-03-18T22:12:28.752Z,100942.09
2019-03-18T22:14:57.885Z,100941.66
2019-03-18T22:17:27.028Z,100935.55
2019-03-18T22:19:56.213Z,100941.55
2019-03-18T22:22:25.548Z,100943.69
2019-03-18T22:24:54.721Z,100945.00
2019-03-18T22:27:23.883Z,100951.89
2019-03-18T22:29:53.007Z,100949.64
2019-03-18T22:32:22.180Z,100952.98
2019-03-18T22:34:51.291Z,100946.76
2019-03-18T22:37:20.506Z,100952.28
2019-03-18T22:39:49.644Z,100953.59
2019-03-18T22:42:18.907Z,100963.06
2019-03-18T22:44:48.020Z,100972.56
2019-03-18T22:47:17.179Z,100971.50
2019-03-18T22:50:05.262Z,100974.48
2019-03-18T22:52:34.428Z,100964.81
2019-03-18T22:55:03.578Z,100963.52
2019-03-18T22:57:32.741Z,100963.87
2019-03-18T23:00:02.025Z,100964.70
2019-03-18T23:02:31.195Z,100962.09
2019-03-18T23:05:00.378Z,100966.00
2019-03-18T23:07:29.478Z,100965.51
2019-03-18T23:09:58.619Z,100969.73
2019-03-18T23:12:27.787Z,100971.70
2019-03-18T23:14:56.917Z,100973.18
2019-03-18T23:17:26.081Z,100976.48
2019-03-18T23:19:55.195Z,100977.55
2019-03-18T23:22:24.299Z,100979.63
2019-03-18T23:24:53.456Z,100978.20
2019-03-18T23:27:22.563Z,100978.56
2019-03-18T23:29:51.715Z,100986.66
2019-03-18T23:32:20.840Z,100994.30
2019-03-18T23:34:49.957Z,100995.42
2019-03-18T23:37:19.078Z,100995.25
2019-03-18T23:39:48.264Z,100996.48
2019-03-18T23:42:17.452Z,100997.73
2019-03-18T23:44:46.605Z,100996.42
2019-03-18T23:47:15.875Z,101002.53
2019-03-18T23:49:47.415Z,101004.19
2019-03-18T23:52:16.055Z,101001.97
2019-03-18T23:54:45.184Z,101007.53
2019-03-18T23:57:14.322Z,101008.84
2019-03-18T23:59:43.441Z,101011.45
